Promised Land, New York
Current Conditions -  °F | °C
As of 2:56 PM on Wednesday 28 Jan 2015 (Local Time) from KGON Reporting Station
Clear Clear  
Wind Chill: 15°   Ceiling: Unl
Heat Index: 25°   Visibility: 10mi
Dew Point:   Wind: 10mph
Humidity: 51%   Direction: 330°NNW
Pressure: 30.02"   Gusts: NA
Location:  40.9764°N, 72.1316°W
Report Text: KGON 281956Z 33009KT 10SM CLR M04/M13 A3002 RMK AO2 SLP164 T10391128
Loading
Personal Weather Stations






























Interactive Weather Map New forecast layout! Learn more

10-Day Weather Forecast

Advertisements
Track Severe Weather on mobile